Terminal Aerodrome Forecast
Issued by NWS Sterling, VA

Current Version | Previous Version | Text Only | Print | Product List | Glossary Off
Versions: 1 2 3 4 5 6 7 8 9 10 11 12 13 14 15 16 17 18 19 20 21 22

000
FTUS41 KLWX 290901 AAA
TAFDCA
TAF AMD
KDCA 290901Z 2909/3006 07005KT 5SM -DZ BR OVC006
     FM291500 07005KT 5SM -DZ OVC010
     FM291700 06005KT P6SM OVC015
     FM291900 07005KT P6SM OVC025
     FM292300 08005KT P6SM OVC015
     FM300400 06005KT 4SM -DZ BR OVC008=

USA.gov is the U.S. government's official web portal to all federal, state and local government web resources and services.